Maritime Instructor — WCW8625 — position and weather

sailwx.info

Track history (hours):
 
Tides and Currents Weather Stations Pressure Air Temp Water Temp Dewpoint Dewpoint Depression Visibility Wind Speed Wind Dir Waves Ship Positions

Maritime Instructor

Owner: WASHINGTON, STATE OF, SEATTLE, WA. More information available from US FCC via Universal Licensing System and Coast Guard Vessel Documentation Center.

Last reported at 2016-May-28 01:33 UTC. Time now 2016-May-31 14:13 UTC.
Position N 47°40' W 122°22'.

Length 30 m; draft 2 m.

Type: Ship. MMSI: 303556000.

Date/timePositionNaut miles runAvg speedWind from/ knotsBaromVisibWave heightAir tempDewpointWater temp
2016-May-28 01:33N 47°40' W 122°22'3 3.1
2016-May-28 00:33N 47°39' W 122°27'1313.0
2016-May-27 23:33N 47°26' W 122°23'1110.5
2016-May-27 22:33N 47°16' W 122°26'0 0.0
2016-May-27 21:28N 47°16' W 122°26'0 0.4
2016-May-27 20:31N 47°15' W 122°26'0 0.3
2016-May-27 19:33N 47°16' W 122°26'1110.6
2016-May-27 18:33N 47°26' W 122°24'1312.8
2016-May-27 17:33N 47°38' W 122°28'3 3.4
2016-May-27 16:33N 47°40' W 122°24'1 0.9
2016-May-27 15:33N 47°40' W 122°23'  
2016-May-25 01:33N 47°40' W 122°23'3 3.3
2016-May-25 00:33N 47°39' W 122°18'7 6.6
2016-May-24 23:27N 47°32' W 122°12'2 1.8
2016-May-24 22:33N 47°33' W 122°14'1 0.8
2016-May-24 21:33N 47°33' W 122°15'1 0.6
2016-May-24 20:33N 47°34' W 122°15'2 2.2
2016-May-24 19:32N 47°34' W 122°12'4 3.9
2016-May-24 18:32N 47°36' W 122°17'3 3.5
2016-May-24 17:33N 47°39' W 122°20'2 1.8
2016-May-24 16:33N 47°40' W 122°23'0 0.0
2016-May-24 15:33N 47°40' W 122°23'  
2016-May-21 01:33N 47°40' W 122°23'3 2.9
2016-May-21 00:33N 47°42' W 122°25'1212.3
2016-May-20 23:33N 47°54' W 122°22'8 8.1
2016-May-20 22:33N 47°60' W 122°13'0 0.0
2016-May-20 21:33N 47°60' W 122°13'0 0.0
2016-May-20 20:33N 47°60' W 122°13'1010.2
2016-May-20 19:33N 47°51' W 122°23'1111.2
2016-May-20 18:33N 47°40' W 122°24'2 1.9
2016-May-20 17:33N 47°39' W 122°22'0 0.0
2016-May-20 16:33N 47°39' W 122°22'0 0.4
2016-May-20 15:33N 47°40' W 122°23'  
Track history (hours):
 
Tides and Currents Weather Stations Pressure Air Temp Water Temp Dewpoint Dewpoint Depression Visibility Wind Speed Wind Dir Waves Ship Positions

Maritime Instructor

Owner: WASHINGTON, STATE OF, SEATTLE, WA. More information available from US FCC via Universal Licensing System and Coast Guard Vessel Documentation Center.

Last reported at 2016-May-28 01:33 UTC. Time now 2016-May-31 14:13 UTC.
Position N 47°40' W 122°22'.

Length 30 m; draft 2 m.

Type: Ship. MMSI: 303556000.

Date/timePositionNaut miles runAvg speedWind from/ knotsBaromVisibWave heightAir tempDewpointWater temp
2016-May-28 01:33N 47°40' W 122°22'3 3.1
2016-May-28 00:33N 47°39' W 122°27'1313.0
2016-May-27 23:33N 47°26' W 122°23'1110.5
2016-May-27 22:33N 47°16' W 122°26'0 0.0
2016-May-27 21:28N 47°16' W 122°26'0 0.4
2016-May-27 20:31N 47°15' W 122°26'0 0.3
2016-May-27 19:33N 47°16' W 122°26'1110.6
2016-May-27 18:33N 47°26' W 122°24'1312.8
2016-May-27 17:33N 47°38' W 122°28'3 3.4
2016-May-27 16:33N 47°40' W 122°24'1 0.9
2016-May-27 15:33N 47°40' W 122°23'  
2016-May-25 01:33N 47°40' W 122°23'3 3.3
2016-May-25 00:33N 47°39' W 122°18'7 6.6
2016-May-24 23:27N 47°32' W 122°12'2 1.8
2016-May-24 22:33N 47°33' W 122°14'1 0.8
2016-May-24 21:33N 47°33' W 122°15'1 0.6
2016-May-24 20:33N 47°34' W 122°15'2 2.2
2016-May-24 19:32N 47°34' W 122°12'4 3.9
2016-May-24 18:32N 47°36' W 122°17'3 3.5
2016-May-24 17:33N 47°39' W 122°20'2 1.8
2016-May-24 16:33N 47°40' W 122°23'0 0.0
2016-May-24 15:33N 47°40' W 122°23'  
2016-May-21 01:33N 47°40' W 122°23'3 2.9
2016-May-21 00:33N 47°42' W 122°25'1212.3
2016-May-20 23:33N 47°54' W 122°22'8 8.1
2016-May-20 22:33N 47°60' W 122°13'0 0.0
2016-May-20 21:33N 47°60' W 122°13'0 0.0
2016-May-20 20:33N 47°60' W 122°13'1010.2
2016-May-20 19:33N 47°51' W 122°23'1111.2
2016-May-20 18:33N 47°40' W 122°24'2 1.9
2016-May-20 17:33N 47°39' W 122°22'0 0.0
2016-May-20 16:33N 47°39' W 122°22'0 0.4
2016-May-20 15:33N 47°40' W 122°23'  

Dump ship's entire track history